sensor_id;sensor_type;location;lat;lon;timestamp;P1;durP1;ratioP1;P2;durP2;ratioP2
74503;SDS011;62988;55.776;37.544;2023-04-29T00:00:03;2.42;;;1.38;;
74503;SDS011;62988;55.776;37.544;2023-04-29T00:02:31;3.13;;;1.33;;
74503;SDS011;62988;55.776;37.544;2023-04-29T00:04:56;2.25;;;1.10;;
74503;SDS011;62988;55.776;37.544;2023-04-29T00:07:21;2.83;;;1.40;;
74503;SDS011;62988;55.776;37.544;2023-04-29T00:09:47;2.57;;;1.27;;
74503;SDS011;62988;55.776;37.544;2023-04-29T00:12:12;2.90;;;1.70;;
74503;SDS011;62988;55.776;37.544;2023-04-29T00:14:38;5.10;;;1.40;;
74503;SDS011;62988;55.776;37.544;2023-04-29T00:17:03;3.42;;;1.50;;
74503;SDS011;62988;55.776;37.544;2023-04-29T00:19:28;4.45;;;1.20;;
74503;SDS011;62988;55.776;37.544;2023-04-29T00:21:54;2.45;;;1.25;;
74503;SDS011;62988;55.776;37.544;2023-04-29T00:24:19;2.97;;;1.15;;
74503;SDS011;62988;55.776;37.544;2023-04-29T00:26:45;2.58;;;1.17;;
74503;SDS011;62988;55.776;37.544;2023-04-29T00:29:10;5.22;;;1.60;;
74503;SDS011;62988;55.776;37.544;2023-04-29T00:31:36;2.10;;;1.02;;
74503;SDS011;62988;55.776;37.544;2023-04-29T00:34:02;2.00;;;0.75;;
74503;SDS011;62988;55.776;37.544;2023-04-29T00:36:27;3.03;;;1.00;;
74503;SDS011;62988;55.776;37.544;2023-04-29T00:38:53;1.90;;;0.70;;
74503;SDS011;62988;55.776;37.544;2023-04-29T00:41:18;2.37;;;1.00;;
74503;SDS011;62988;55.776;37.544;2023-04-29T00:43:43;3.08;;;0.77;;
74503;SDS011;62988;55.776;37.544;2023-04-29T00:46:09;2.65;;;0.80;;
74503;SDS011;62988;55.776;37.544;2023-04-29T00:48:34;2.00;;;1.05;;
74503;SDS011;62988;55.776;37.544;2023-04-29T00:51:00;2.00;;;0.83;;
74503;SDS011;62988;55.776;37.544;2023-04-29T00:53:25;1.45;;;0.75;;
74503;SDS011;62988;55.776;37.544;2023-04-29T00:55:51;1.98;;;0.73;;
74503;SDS011;62988;55.776;37.544;2023-04-29T00:58:17;2.10;;;1.08;;
74503;SDS011;62988;55.776;37.544;2023-04-29T01:00:42;3.20;;;1.00;;
74503;SDS011;62988;55.776;37.544;2023-04-29T01:03:08;1.65;;;0.93;;
74503;SDS011;62988;55.776;37.544;2023-04-29T01:05:33;3.80;;;0.85;;
74503;SDS011;62988;55.776;37.544;2023-04-29T01:10:43;3.72;;;1.15;;
74503;SDS011;62988;55.776;37.544;2023-04-29T01:13:16;2.70;;;1.05;;
74503;SDS011;62988;55.776;37.544;2023-04-29T01:15:50;2.75;;;0.90;;
74503;SDS011;62988;55.776;37.544;2023-04-29T01:20:43;3.15;;;0.90;;
74503;SDS011;62988;55.776;37.544;2023-04-29T01:23:09;2.05;;;0.95;;
74503;SDS011;62988;55.776;37.544;2023-04-29T01:25:34;2.50;;;0.82;;
74503;SDS011;62988;55.776;37.544;2023-04-29T01:30:44;2.65;;;0.80;;
74503;SDS011;62988;55.776;37.544;2023-04-29T01:33:16;1.80;;;0.95;;
74503;SDS011;62988;55.776;37.544;2023-04-29T01:41:56;4.60;;;0.90;;
74503;SDS011;62988;55.776;37.544;2023-04-29T01:43:56;3.30;;;0.98;;
74503;SDS011;62988;55.776;37.544;2023-04-29T01:46:22;3.00;;;0.77;;
74503;SDS011;62988;55.776;37.544;2023-04-29T01:48:48;1.87;;;0.70;;
74503;SDS011;62988;55.776;37.544;2023-04-29T01:51:16;1.50;;;0.65;;
74503;SDS011;62988;55.776;37.544;2023-04-29T01:53:41;1.33;;;0.63;;
74503;SDS011;62988;55.776;37.544;2023-04-29T01:56:07;1.60;;;0.77;;
74503;SDS011;62988;55.776;37.544;2023-04-29T01:58:33;2.00;;;0.77;;
74503;SDS011;62988;55.776;37.544;2023-04-29T02:00:58;3.00;;;0.80;;
74503;SDS011;62988;55.776;37.544;2023-04-29T02:03:23;2.43;;;0.80;;
74503;SDS011;62988;55.776;37.544;2023-04-29T02:05:49;3.97;;;0.80;;
74503;SDS011;62988;55.776;37.544;2023-04-29T02:08:15;2.05;;;0.88;;
74503;SDS011;62988;55.776;37.544;2023-04-29T02:10:40;1.50;;;0.55;;
74503;SDS011;62988;55.776;37.544;2023-04-29T02:13:06;2.72;;;0.95;;
74503;SDS011;62988;55.776;37.544;2023-04-29T02:15:31;3.67;;;0.90;;
74503;SDS011;62988;55.776;37.544;2023-04-29T02:17:56;3.50;;;0.83;;
74503;SDS011;62988;55.776;37.544;2023-04-29T02:20:22;2.00;;;0.82;;
74503;SDS011;62988;55.776;37.544;2023-04-29T02:22:47;2.67;;;1.00;;
74503;SDS011;62988;55.776;37.544;2023-04-29T02:25:13;2.35;;;0.85;;
74503;SDS011;62988;55.776;37.544;2023-04-29T02:27:38;2.15;;;0.90;;
74503;SDS011;62988;55.776;37.544;2023-04-29T02:30:04;3.73;;;0.90;;
74503;SDS011;62988;55.776;37.544;2023-04-29T02:32:30;3.53;;;0.88;;
74503;SDS011;62988;55.776;37.544;2023-04-29T02:34:55;2.88;;;0.90;;
74503;SDS011;62988;55.776;37.544;2023-04-29T02:37:22;4.82;;;0.85;;
74503;SDS011;62988;55.776;37.544;2023-04-29T02:39:47;1.80;;;0.85;;
74503;SDS011;62988;55.776;37.544;2023-04-29T02:42:13;1.97;;;0.93;;
74503;SDS011;62988;55.776;37.544;2023-04-29T02:44:38;1.73;;;0.60;;
74503;SDS011;62988;55.776;37.544;2023-04-29T02:47:04;2.22;;;0.90;;
74503;SDS011;62988;55.776;37.544;2023-04-29T02:49:29;2.75;;;0.82;;
74503;SDS011;62988;55.776;37.544;2023-04-29T02:51:55;2.17;;;0.80;;
74503;SDS011;62988;55.776;37.544;2023-04-29T02:54:20;2.17;;;0.90;;
74503;SDS011;62988;55.776;37.544;2023-04-29T02:56:45;1.73;;;0.90;;
74503;SDS011;62988;55.776;37.544;2023-04-29T02:59:11;1.67;;;0.83;;
74503;SDS011;62988;55.776;37.544;2023-04-29T03:01:36;1.27;;;0.57;;
74503;SDS011;62988;55.776;37.544;2023-04-29T03:04:02;2.15;;;0.70;;
74503;SDS011;62988;55.776;37.544;2023-04-29T03:06:28;2.95;;;0.70;;
74503;SDS011;62988;55.776;37.544;2023-04-29T03:08:53;1.57;;;0.70;;
74503;SDS011;62988;55.776;37.544;2023-04-29T03:11:19;1.90;;;0.70;;
74503;SDS011;62988;55.776;37.544;2023-04-29T03:13:44;1.50;;;0.60;;
74503;SDS011;62988;55.776;37.544;2023-04-29T03:16:10;2.42;;;0.90;;
74503;SDS011;62988;55.776;37.544;2023-04-29T03:18:37;2.78;;;0.80;;
74503;SDS011;62988;55.776;37.544;2023-04-29T03:21:03;3.33;;;0.90;;
74503;SDS011;62988;55.776;37.544;2023-04-29T03:23:28;1.55;;;0.57;;
74503;SDS011;62988;55.776;37.544;2023-04-29T03:25:54;1.63;;;0.68;;
74503;SDS011;62988;55.776;37.544;2023-04-29T03:28:20;2.20;;;1.05;;
74503;SDS011;62988;55.776;37.544;2023-04-29T03:30:45;2.10;;;0.70;;
74503;SDS011;62988;55.776;37.544;2023-04-29T03:33:10;2.50;;;0.80;;
74503;SDS011;62988;55.776;37.544;2023-04-29T03:35:36;2.10;;;1.00;;
74503;SDS011;62988;55.776;37.544;2023-04-29T03:38:01;2.97;;;0.87;;
74503;SDS011;62988;55.776;37.544;2023-04-29T03:40:26;2.83;;;1.00;;
74503;SDS011;62988;55.776;37.544;2023-04-29T03:42:52;2.97;;;0.87;;
74503;SDS011;62988;55.776;37.544;2023-04-29T03:45:17;2.53;;;0.90;;
74503;SDS011;62988;55.776;37.544;2023-04-29T03:47:42;2.63;;;0.82;;
74503;SDS011;62988;55.776;37.544;2023-04-29T03:50:08;1.90;;;0.80;;
74503;SDS011;62988;55.776;37.544;2023-04-29T03:52:33;2.03;;;0.70;;
74503;SDS011;62988;55.776;37.544;2023-04-29T03:55:01;2.00;;;0.98;;
74503;SDS011;62988;55.776;37.544;2023-04-29T03:57:26;1.92;;;0.90;;
74503;SDS011;62988;55.776;37.544;2023-04-29T03:59:52;2.50;;;0.87;;
74503;SDS011;62988;55.776;37.544;2023-04-29T04:02:17;1.97;;;0.70;;
74503;SDS011;62988;55.776;37.544;2023-04-29T04:04:43;1.77;;;0.77;;
74503;SDS011;62988;55.776;37.544;2023-04-29T04:07:08;2.30;;;1.10;;
74503;SDS011;62988;55.776;37.544;2023-04-29T04:09:34;2.43;;;0.97;;
74503;SDS011;62988;55.776;37.544;2023-04-29T04:11:59;2.00;;;0.80;;
74503;SDS011;62988;55.776;37.544;2023-04-29T04:14:25;1.70;;;0.77;;
74503;SDS011;62988;55.776;37.544;2023-04-29T04:16:50;3.08;;;0.80;;
74503;SDS011;62988;55.776;37.544;2023-04-29T04:19:15;1.70;;;0.70;;
74503;SDS011;62988;55.776;37.544;2023-04-29T04:21:41;2.97;;;0.90;;
74503;SDS011;62988;55.776;37.544;2023-04-29T04:24:06;3.25;;;1.00;;
74503;SDS011;62988;55.776;37.544;2023-04-29T04:26:32;2.03;;;0.90;;
74503;SDS011;62988;55.776;37.544;2023-04-29T04:28:57;3.28;;;0.85;;
74503;SDS011;62988;55.776;37.544;2023-04-29T04:31:23;1.75;;;0.75;;
74503;SDS011;62988;55.776;37.544;2023-04-29T04:33:48;2.17;;;0.90;;
74503;SDS011;62988;55.776;37.544;2023-04-29T04:36:13;8.18;;;1.67;;
74503;SDS011;62988;55.776;37.544;2023-04-29T04:38:39;3.60;;;1.48;;
74503;SDS011;62988;55.776;37.544;2023-04-29T04:41:07;2.53;;;0.77;;
74503;SDS011;62988;55.776;37.544;2023-04-29T04:43:33;2.92;;;1.00;;
74503;SDS011;62988;55.776;37.544;2023-04-29T04:45:58;2.07;;;0.80;;
74503;SDS011;62988;55.776;37.544;2023-04-29T04:48:23;2.03;;;0.97;;
74503;SDS011;62988;55.776;37.544;2023-04-29T04:50:49;2.10;;;0.90;;
74503;SDS011;62988;55.776;37.544;2023-04-29T04:53:14;2.00;;;0.80;;
74503;SDS011;62988;55.776;37.544;2023-04-29T04:55:39;1.92;;;1.05;;
74503;SDS011;62988;55.776;37.544;2023-04-29T04:58:05;3.60;;;1.10;;
74503;SDS011;62988;55.776;37.544;2023-04-29T05:00:30;2.30;;;1.02;;
74503;SDS011;62988;55.776;37.544;2023-04-29T05:02:55;3.60;;;1.30;;
74503;SDS011;62988;55.776;37.544;2023-04-29T05:05:21;2.67;;;1.17;;
74503;SDS011;62988;55.776;37.544;2023-04-29T05:07:46;2.40;;;1.10;;
74503;SDS011;62988;55.776;37.544;2023-04-29T05:10:12;2.60;;;1.40;;
74503;SDS011;62988;55.776;37.544;2023-04-29T05:12:37;3.15;;;1.30;;
74503;SDS011;62988;55.776;37.544;2023-04-29T05:15:03;5.93;;;1.42;;
74503;SDS011;62988;55.776;37.544;2023-04-29T05:17:28;3.80;;;1.90;;
74503;SDS011;62988;55.776;37.544;2023-04-29T05:19:54;3.00;;;1.40;;
74503;SDS011;62988;55.776;37.544;2023-04-29T05:22:19;3.13;;;1.60;;
74503;SDS011;62988;55.776;37.544;2023-04-29T05:24:44;2.90;;;1.47;;
74503;SDS011;62988;55.776;37.544;2023-04-29T05:27:12;3.63;;;1.60;;
74503;SDS011;62988;55.776;37.544;2023-04-29T05:29:37;3.30;;;1.50;;
74503;SDS011;62988;55.776;37.544;2023-04-29T05:32:03;3.20;;;1.60;;
74503;SDS011;62988;55.776;37.544;2023-04-29T05:34:29;3.10;;;1.63;;
74503;SDS011;62988;55.776;37.544;2023-04-29T05:36:54;3.67;;;1.33;;
74503;SDS011;62988;55.776;37.544;2023-04-29T05:39:20;3.53;;;1.73;;
74503;SDS011;62988;55.776;37.544;2023-04-29T05:41:45;7.57;;;1.75;;
74503;SDS011;62988;55.776;37.544;2023-04-29T05:44:10;3.45;;;1.45;;
74503;SDS011;62988;55.776;37.544;2023-04-29T05:46:36;3.43;;;1.70;;
74503;SDS011;62988;55.776;37.544;2023-04-29T05:49:01;4.73;;;1.50;;
74503;SDS011;62988;55.776;37.544;2023-04-29T05:51:26;6.17;;;2.00;;
74503;SDS011;62988;55.776;37.544;2023-04-29T05:53:52;4.97;;;1.80;;
74503;SDS011;62988;55.776;37.544;2023-04-29T05:56:18;5.07;;;1.80;;
74503;SDS011;62988;55.776;37.544;2023-04-29T05:58:44;2.75;;;1.73;;
74503;SDS011;62988;55.776;37.544;2023-04-29T06:01:09;4.07;;;2.08;;
74503;SDS011;62988;55.776;37.544;2023-04-29T06:03:35;3.67;;;1.80;;
74503;SDS011;62988;55.776;37.544;2023-04-29T06:06:01;3.95;;;1.98;;
74503;SDS011;62988;55.776;37.544;2023-04-29T06:08:26;4.05;;;1.80;;
74503;SDS011;62988;55.776;37.544;2023-04-29T06:10:52;2.53;;;1.80;;
74503;SDS011;62988;55.776;37.544;2023-04-29T06:13:17;4.00;;;2.13;;
74503;SDS011;62988;55.776;37.544;2023-04-29T06:15:43;3.53;;;1.98;;
74503;SDS011;62988;55.776;37.544;2023-04-29T06:18:08;5.38;;;2.22;;
74503;SDS011;62988;55.776;37.544;2023-04-29T06:20:33;4.23;;;1.90;;
74503;SDS011;62988;55.776;37.544;2023-04-29T06:22:59;4.50;;;2.23;;
74503;SDS011;62988;55.776;37.544;2023-04-29T06:25:24;3.50;;;1.83;;
74503;SDS011;62988;55.776;37.544;2023-04-29T06:27:50;3.20;;;1.70;;
74503;SDS011;62988;55.776;37.544;2023-04-29T06:30:15;4.10;;;2.37;;
74503;SDS011;62988;55.776;37.544;2023-04-29T06:32:40;4.30;;;1.93;;
74503;SDS011;62988;55.776;37.544;2023-04-29T06:35:06;4.37;;;2.20;;
74503;SDS011;62988;55.776;37.544;2023-04-29T06:37:31;4.80;;;1.77;;
74503;SDS011;62988;55.776;37.544;2023-04-29T06:39:57;4.07;;;1.85;;
74503;SDS011;62988;55.776;37.544;2023-04-29T06:42:22;4.60;;;1.50;;
74503;SDS011;62988;55.776;37.544;2023-04-29T06:44:47;3.10;;;1.77;;
74503;SDS011;62988;55.776;37.544;2023-04-29T06:47:12;5.13;;;1.40;;
74503;SDS011;62988;55.776;37.544;2023-04-29T06:49:39;3.70;;;1.73;;
74503;SDS011;62988;55.776;37.544;2023-04-29T06:52:04;7.63;;;4.78;;
74503;SDS011;62988;55.776;37.544;2023-04-29T06:54:30;3.83;;;1.73;;
74503;SDS011;62988;55.776;37.544;2023-04-29T06:56:55;2.60;;;1.52;;
74503;SDS011;62988;55.776;37.544;2023-04-29T06:59:22;3.80;;;1.50;;
74503;SDS011;62988;55.776;37.544;2023-04-29T07:01:47;5.00;;;1.85;;
74503;SDS011;62988;55.776;37.544;2023-04-29T07:04:13;3.38;;;1.80;;
74503;SDS011;62988;55.776;37.544;2023-04-29T07:06:38;4.32;;;1.88;;
74503;SDS011;62988;55.776;37.544;2023-04-29T07:09:03;4.03;;;2.22;;
74503;SDS011;62988;55.776;37.544;2023-04-29T07:11:29;4.53;;;2.10;;
74503;SDS011;62988;55.776;37.544;2023-04-29T07:13:54;3.53;;;2.08;;
74503;SDS011;62988;55.776;37.544;2023-04-29T07:16:20;3.70;;;2.38;;
74503;SDS011;62988;55.776;37.544;2023-04-29T07:18:49;5.40;;;1.90;;
74503;SDS011;62988;55.776;37.544;2023-04-29T07:21:14;3.50;;;2.10;;
74503;SDS011;62988;55.776;37.544;2023-04-29T07:23:39;4.38;;;2.47;;
74503;SDS011;62988;55.776;37.544;2023-04-29T07:26:11;4.13;;;1.95;;
74503;SDS011;62988;55.776;37.544;2023-04-29T07:28:37;6.97;;;2.25;;
74503;SDS011;62988;55.776;37.544;2023-04-29T07:31:03;4.20;;;1.77;;
74503;SDS011;62988;55.776;37.544;2023-04-29T07:33:29;3.35;;;1.92;;
74503;SDS011;62988;55.776;37.544;2023-04-29T07:35:55;3.47;;;1.33;;
74503;SDS011;62988;55.776;37.544;2023-04-29T07:38:20;2.67;;;1.73;;
74503;SDS011;62988;55.776;37.544;2023-04-29T07:40:45;2.40;;;1.50;;
74503;SDS011;62988;55.776;37.544;2023-04-29T07:43:11;3.50;;;2.03;;
74503;SDS011;62988;55.776;37.544;2023-04-29T07:45:37;3.00;;;1.88;;
74503;SDS011;62988;55.776;37.544;2023-04-29T07:48:02;3.38;;;1.95;;
74503;SDS011;62988;55.776;37.544;2023-04-29T07:50:28;3.00;;;1.90;;
74503;SDS011;62988;55.776;37.544;2023-04-29T07:52:53;2.67;;;1.70;;
74503;SDS011;62988;55.776;37.544;2023-04-29T07:55:19;2.63;;;1.75;;
74503;SDS011;62988;55.776;37.544;2023-04-29T07:57:44;4.30;;;2.20;;
74503;SDS011;62988;55.776;37.544;2023-04-29T08:00:10;7.18;;;2.45;;
74503;SDS011;62988;55.776;37.544;2023-04-29T08:02:36;6.88;;;1.85;;
74503;SDS011;62988;55.776;37.544;2023-04-29T08:05:01;6.10;;;1.80;;
74503;SDS011;62988;55.776;37.544;2023-04-29T08:07:27;3.20;;;1.73;;
74503;SDS011;62988;55.776;37.544;2023-04-29T08:09:53;4.05;;;1.85;;
74503;SDS011;62988;55.776;37.544;2023-04-29T08:12:18;3.10;;;1.70;;
74503;SDS011;62988;55.776;37.544;2023-04-29T08:14:43;4.78;;;2.42;;
74503;SDS011;62988;55.776;37.544;2023-04-29T08:17:09;7.13;;;2.13;;
74503;SDS011;62988;55.776;37.544;2023-04-29T08:19:34;11.98;;;2.05;;
74503;SDS011;62988;55.776;37.544;2023-04-29T08:22:00;4.20;;;1.60;;
74503;SDS011;62988;55.776;37.544;2023-04-29T08:24:25;8.73;;;1.80;;
74503;SDS011;62988;55.776;37.544;2023-04-29T08:26:50;12.30;;;2.55;;
74503;SDS011;62988;55.776;37.544;2023-04-29T08:29:17;8.88;;;2.60;;
74503;SDS011;62988;55.776;37.544;2023-04-29T08:31:42;8.77;;;2.10;;
74503;SDS011;62988;55.776;37.544;2023-04-29T08:34:08;8.10;;;2.28;;
74503;SDS011;62988;55.776;37.544;2023-04-29T08:36:33;6.43;;;2.60;;
74503;SDS011;62988;55.776;37.544;2023-04-29T08:39:01;2.63;;;1.33;;
74503;SDS011;62988;55.776;37.544;2023-04-29T08:41:26;2.53;;;1.50;;
74503;SDS011;62988;55.776;37.544;2023-04-29T08:43:52;10.82;;;2.88;;
74503;SDS011;62988;55.776;37.544;2023-04-29T08:46:17;5.53;;;1.80;;
74503;SDS011;62988;55.776;37.544;2023-04-29T08:48:43;5.78;;;2.00;;
74503;SDS011;62988;55.776;37.544;2023-04-29T08:51:10;3.47;;;1.42;;
74503;SDS011;62988;55.776;37.544;2023-04-29T08:53:36;3.20;;;1.40;;
74503;SDS011;62988;55.776;37.544;2023-04-29T08:56:02;3.47;;;1.45;;
74503;SDS011;62988;55.776;37.544;2023-04-29T08:58:28;2.85;;;1.75;;
74503;SDS011;62988;55.776;37.544;2023-04-29T09:00:54;10.90;;;1.85;;
74503;SDS011;62988;55.776;37.544;2023-04-29T09:05:44;4.60;;;1.73;;
74503;SDS011;62988;55.776;37.544;2023-04-29T09:08:11;6.00;;;1.83;;
74503;SDS011;62988;55.776;37.544;2023-04-29T09:10:40;11.68;;;2.50;;
74503;SDS011;62988;55.776;37.544;2023-04-29T09:13:06;25.60;;;3.25;;
74503;SDS011;62988;55.776;37.544;2023-04-29T09:15:35;21.52;;;2.42;;
74503;SDS011;62988;55.776;37.544;2023-04-29T09:18:01;15.05;;;3.55;;
74503;SDS011;62988;55.776;37.544;2023-04-29T09:20:27;11.47;;;1.63;;
74503;SDS011;62988;55.776;37.544;2023-04-29T09:22:57;9.43;;;2.47;;
74503;SDS011;62988;55.776;37.544;2023-04-29T09:25:22;7.15;;;1.35;;
74503;SDS011;62988;55.776;37.544;2023-04-29T09:27:48;2.13;;;1.02;;
74503;SDS011;62988;55.776;37.544;2023-04-29T09:30:13;3.23;;;1.37;;
74503;SDS011;62988;55.776;37.544;2023-04-29T09:32:41;4.75;;;1.35;;
74503;SDS011;62988;55.776;37.544;2023-04-29T09:35:22;4.50;;;1.38;;
74503;SDS011;62988;55.776;37.544;2023-04-29T09:37:51;5.70;;;1.65;;
74503;SDS011;62988;55.776;37.544;2023-04-29T09:40:30;6.78;;;1.42;;
74503;SDS011;62988;55.776;37.544;2023-04-29T09:42:55;3.22;;;1.83;;
74503;SDS011;62988;55.776;37.544;2023-04-29T09:45:34;2.20;;;1.48;;
74503;SDS011;62988;55.776;37.544;2023-04-29T09:48:01;2.13;;;1.00;;
74503;SDS011;62988;55.776;37.544;2023-04-29T09:50:27;4.15;;;1.73;;
74503;SDS011;62988;55.776;37.544;2023-04-29T09:52:52;2.53;;;1.40;;
74503;SDS011;62988;55.776;37.544;2023-04-29T09:55:18;4.53;;;2.00;;
74503;SDS011;62988;55.776;37.544;2023-04-29T09:57:43;2.80;;;1.25;;
74503;SDS011;62988;55.776;37.544;2023-04-29T10:00:10;4.05;;;1.30;;
74503;SDS011;62988;55.776;37.544;2023-04-29T10:02:36;5.60;;;1.70;;
74503;SDS011;62988;55.776;37.544;2023-04-29T10:05:04;3.75;;;1.70;;
74503;SDS011;62988;55.776;37.544;2023-04-29T10:07:29;3.45;;;1.33;;
74503;SDS011;62988;55.776;37.544;2023-04-29T10:09:54;2.08;;;1.00;;
74503;SDS011;62988;55.776;37.544;2023-04-29T10:12:20;3.40;;;1.35;;
74503;SDS011;62988;55.776;37.544;2023-04-29T10:14:53;5.15;;;1.45;;
74503;SDS011;62988;55.776;37.544;2023-04-29T10:17:23;4.50;;;1.60;;
74503;SDS011;62988;55.776;37.544;2023-04-29T10:20:03;3.97;;;1.83;;
74503;SDS011;62988;55.776;37.544;2023-04-29T10:22:39;6.00;;;1.40;;
74503;SDS011;62988;55.776;37.544;2023-04-29T10:25:05;3.05;;;1.00;;
74503;SDS011;62988;55.776;37.544;2023-04-29T10:27:30;3.10;;;1.25;;
74503;SDS011;62988;55.776;37.544;2023-04-29T10:29:58;5.18;;;1.17;;
74503;SDS011;62988;55.776;37.544;2023-04-29T10:32:25;4.07;;;1.15;;
74503;SDS011;62988;55.776;37.544;2023-04-29T10:34:52;4.03;;;1.30;;
74503;SDS011;62988;55.776;37.544;2023-04-29T10:37:18;3.97;;;1.58;;
74503;SDS011;62988;55.776;37.544;2023-04-29T10:42:17;3.00;;;1.40;;
74503;SDS011;62988;55.776;37.544;2023-04-29T10:47:28;3.83;;;1.35;;
74503;SDS011;62988;55.776;37.544;2023-04-29T10:50:03;5.60;;;1.42;;
74503;SDS011;62988;55.776;37.544;2023-04-29T10:52:28;2.17;;;1.10;;
74503;SDS011;62988;55.776;37.544;2023-04-29T10:55:03;3.83;;;1.40;;
74503;SDS011;62988;55.776;37.544;2023-04-29T10:57:28;2.72;;;1.20;;
74503;SDS011;62988;55.776;37.544;2023-04-29T10:59:54;3.20;;;1.13;;
74503;SDS011;62988;55.776;37.544;2023-04-29T11:02:20;4.63;;;1.52;;
74503;SDS011;62988;55.776;37.544;2023-04-29T11:07:30;4.43;;;1.45;;
74503;SDS011;62988;55.776;37.544;2023-04-29T11:09:55;2.93;;;1.27;;
74503;SDS011;62988;55.776;37.544;2023-04-29T11:12:20;3.23;;;1.40;;
74503;SDS011;62988;55.776;37.544;2023-04-29T11:14:49;2.72;;;1.33;;
74503;SDS011;62988;55.776;37.544;2023-04-29T11:17:15;2.85;;;1.25;;
74503;SDS011;62988;55.776;37.544;2023-04-29T11:19:45;4.60;;;1.20;;
74503;SDS011;62988;55.776;37.544;2023-04-29T11:22:11;4.05;;;1.90;;
74503;SDS011;62988;55.776;37.544;2023-04-29T11:24:50;6.78;;;1.50;;
74503;SDS011;62988;55.776;37.544;2023-04-29T11:27:16;3.80;;;1.60;;
74503;SDS011;62988;55.776;37.544;2023-04-29T11:29:41;5.85;;;1.60;;
74503;SDS011;62988;55.776;37.544;2023-04-29T11:32:08;3.22;;;1.63;;
74503;SDS011;62988;55.776;37.544;2023-04-29T11:34:33;2.50;;;1.10;;
74503;SDS011;62988;55.776;37.544;2023-04-29T11:36:58;3.43;;;1.30;;
74503;SDS011;62988;55.776;37.544;2023-04-29T11:39:25;5.13;;;1.42;;
74503;SDS011;62988;55.776;37.544;2023-04-29T11:41:50;3.25;;;1.70;;
74503;SDS011;62988;55.776;37.544;2023-04-29T11:44:19;2.75;;;1.10;;
74503;SDS011;62988;55.776;37.544;2023-04-29T11:46:45;3.78;;;1.33;;
74503;SDS011;62988;55.776;37.544;2023-04-29T11:49:10;3.15;;;1.60;;
74503;SDS011;62988;55.776;37.544;2023-04-29T11:51:36;3.97;;;1.40;;
74503;SDS011;62988;55.776;37.544;2023-04-29T11:54:01;2.80;;;1.50;;
74503;SDS011;62988;55.776;37.544;2023-04-29T11:56:27;2.88;;;1.40;;
74503;SDS011;62988;55.776;37.544;2023-04-29T11:58:53;2.40;;;1.17;;
74503;SDS011;62988;55.776;37.544;2023-04-29T12:01:19;10.30;;;1.83;;
74503;SDS011;62988;55.776;37.544;2023-04-29T12:03:47;4.63;;;1.42;;
74503;SDS011;62988;55.776;37.544;2023-04-29T12:06:12;4.32;;;2.03;;
74503;SDS011;62988;55.776;37.544;2023-04-29T12:08:38;5.10;;;1.95;;
74503;SDS011;62988;55.776;37.544;2023-04-29T12:11:03;4.60;;;1.37;;
74503;SDS011;62988;55.776;37.544;2023-04-29T12:13:31;4.93;;;1.73;;
74503;SDS011;62988;55.776;37.544;2023-04-29T12:15:57;4.20;;;1.77;;
74503;SDS011;62988;55.776;37.544;2023-04-29T12:18:23;4.07;;;1.63;;
74503;SDS011;62988;55.776;37.544;2023-04-29T12:20:49;3.70;;;1.48;;
74503;SDS011;62988;55.776;37.544;2023-04-29T12:23:20;2.85;;;1.40;;
74503;SDS011;62988;55.776;37.544;2023-04-29T12:28:19;6.78;;;1.73;;
74503;SDS011;62988;55.776;37.544;2023-04-29T12:30:44;5.53;;;2.40;;
74503;SDS011;62988;55.776;37.544;2023-04-29T12:33:14;3.30;;;1.38;;
74503;SDS011;62988;55.776;37.544;2023-04-29T12:35:39;6.18;;;1.30;;
74503;SDS011;62988;55.776;37.544;2023-04-29T12:38:05;2.40;;;1.15;;
74503;SDS011;62988;55.776;37.544;2023-04-29T12:40:31;2.58;;;1.30;;
74503;SDS011;62988;55.776;37.544;2023-04-29T12:42:57;11.35;;;4.03;;
74503;SDS011;62988;55.776;37.544;2023-04-29T12:45:26;4.83;;;1.30;;
74503;SDS011;62988;55.776;37.544;2023-04-29T12:47:51;3.55;;;1.48;;
74503;SDS011;62988;55.776;37.544;2023-04-29T12:50:17;2.90;;;1.20;;
74503;SDS011;62988;55.776;37.544;2023-04-29T12:52:43;3.80;;;1.20;;
74503;SDS011;62988;55.776;37.544;2023-04-29T12:55:08;3.27;;;1.40;;
74503;SDS011;62988;55.776;37.544;2023-04-29T12:57:33;5.70;;;1.75;;
74503;SDS011;62988;55.776;37.544;2023-04-29T12:59:59;6.55;;;1.42;;
74503;SDS011;62988;55.776;37.544;2023-04-29T13:02:24;4.40;;;1.38;;
74503;SDS011;62988;55.776;37.544;2023-04-29T13:04:50;5.22;;;1.48;;
74503;SDS011;62988;55.776;37.544;2023-04-29T13:07:16;3.33;;;1.30;;
74503;SDS011;62988;55.776;37.544;2023-04-29T13:09:42;2.25;;;1.15;;
74503;SDS011;62988;55.776;37.544;2023-04-29T13:12:07;2.57;;;1.10;;
74503;SDS011;62988;55.776;37.544;2023-04-29T13:14:33;3.65;;;1.20;;
74503;SDS011;62988;55.776;37.544;2023-04-29T13:16:58;3.30;;;1.47;;
74503;SDS011;62988;55.776;37.544;2023-04-29T13:19:23;3.50;;;1.13;;
74503;SDS011;62988;55.776;37.544;2023-04-29T13:21:49;6.13;;;1.15;;
74503;SDS011;62988;55.776;37.544;2023-04-29T13:24:15;5.80;;;1.23;;
74503;SDS011;62988;55.776;37.544;2023-04-29T13:26:42;2.78;;;1.63;;
74503;SDS011;62988;55.776;37.544;2023-04-29T13:29:07;3.90;;;1.40;;
74503;SDS011;62988;55.776;37.544;2023-04-29T13:31:33;5.15;;;1.00;;
74503;SDS011;62988;55.776;37.544;2023-04-29T13:33:58;3.03;;;0.90;;
74503;SDS011;62988;55.776;37.544;2023-04-29T13:36:23;3.23;;;0.93;;
74503;SDS011;62988;55.776;37.544;2023-04-29T13:38:52;2.50;;;1.08;;
74503;SDS011;62988;55.776;37.544;2023-04-29T13:41:17;3.13;;;2.00;;
74503;SDS011;62988;55.776;37.544;2023-04-29T13:43:42;4.40;;;1.07;;
74503;SDS011;62988;55.776;37.544;2023-04-29T13:46:08;2.83;;;1.20;;
74503;SDS011;62988;55.776;37.544;2023-04-29T13:48:33;4.93;;;1.20;;
74503;SDS011;62988;55.776;37.544;2023-04-29T13:50:59;4.90;;;1.52;;
74503;SDS011;62988;55.776;37.544;2023-04-29T13:53:24;3.25;;;1.23;;
74503;SDS011;62988;55.776;37.544;2023-04-29T13:55:50;4.95;;;1.25;;
74503;SDS011;62988;55.776;37.544;2023-04-29T13:58:17;9.93;;;1.77;;
74503;SDS011;62988;55.776;37.544;2023-04-29T14:00:42;4.83;;;1.50;;
74503;SDS011;62988;55.776;37.544;2023-04-29T14:03:07;2.50;;;1.13;;
74503;SDS011;62988;55.776;37.544;2023-04-29T14:05:33;4.43;;;1.35;;
74503;SDS011;62988;55.776;37.544;2023-04-29T14:07:58;4.20;;;1.45;;
74503;SDS011;62988;55.776;37.544;2023-04-29T14:10:24;4.00;;;1.33;;
74503;SDS011;62988;55.776;37.544;2023-04-29T14:12:49;2.97;;;1.58;;
74503;SDS011;62988;55.776;37.544;2023-04-29T14:15:15;4.22;;;1.80;;
74503;SDS011;62988;55.776;37.544;2023-04-29T14:17:40;2.92;;;1.40;;
74503;SDS011;62988;55.776;37.544;2023-04-29T14:20:06;5.82;;;1.80;;
74503;SDS011;62988;55.776;37.544;2023-04-29T14:22:31;2.50;;;1.30;;
74503;SDS011;62988;55.776;37.544;2023-04-29T14:24:57;3.20;;;1.00;;
74503;SDS011;62988;55.776;37.544;2023-04-29T14:27:22;5.13;;;1.33;;
74503;SDS011;62988;55.776;37.544;2023-04-29T14:29:47;4.57;;;1.20;;
74503;SDS011;62988;55.776;37.544;2023-04-29T14:32:13;3.65;;;1.15;;
74503;SDS011;62988;55.776;37.544;2023-04-29T14:34:38;3.00;;;1.23;;
74503;SDS011;62988;55.776;37.544;2023-04-29T14:37:04;2.58;;;1.10;;
74503;SDS011;62988;55.776;37.544;2023-04-29T14:39:29;4.50;;;1.35;;
74503;SDS011;62988;55.776;37.544;2023-04-29T14:41:54;6.13;;;1.27;;
74503;SDS011;62988;55.776;37.544;2023-04-29T14:44:20;4.60;;;1.07;;
74503;SDS011;62988;55.776;37.544;2023-04-29T14:46:45;2.60;;;1.00;;
74503;SDS011;62988;55.776;37.544;2023-04-29T14:49:11;2.55;;;0.80;;
74503;SDS011;62988;55.776;37.544;2023-04-29T14:51:36;3.40;;;1.37;;